createdAt,value
2023-02-20T00:00:51.605Z,7.18
2023-02-20T00:03:17.990Z,7.65
2023-02-20T00:05:44.341Z,7.82
2023-02-20T00:08:10.681Z,7.60
2023-02-20T00:10:37.006Z,9.27
2023-02-20T00:13:03.264Z,9.50
2023-02-20T00:15:29.632Z,9.40
2023-02-20T00:17:55.919Z,8.65
2023-02-20T00:20:23.845Z,9.77
2023-02-20T00:22:50.533Z,9.55
2023-02-20T00:25:17.505Z,9.88
2023-02-20T00:27:44.021Z,10.55
2023-02-20T00:30:14.398Z,9.60
2023-02-20T00:32:40.636Z,9.52
2023-02-20T00:35:07.199Z,10.52
2023-02-20T00:37:33.437Z,10.13
2023-02-20T00:39:59.728Z,11.18
2023-02-20T00:42:26.022Z,11.25
2023-02-20T00:44:52.275Z,10.32
2023-02-20T00:47:18.511Z,11.13
2023-02-20T00:49:44.865Z,10.98
2023-02-20T00:52:11.191Z,11.32
2023-02-20T00:54:37.499Z,11.55
2023-02-20T00:57:03.796Z,11.10
2023-02-20T00:59:30.233Z,11.35
2023-02-20T01:01:56.600Z,11.98
2023-02-20T01:04:22.965Z,12.07
2023-02-20T01:06:49.270Z,11.93
2023-02-20T01:09:15.665Z,12.10
2023-02-20T01:11:44.911Z,12.35
2023-02-20T01:14:11.791Z,11.90
2023-02-20T01:16:43.357Z,11.68
2023-02-20T01:19:09.920Z,11.55
2023-02-20T01:21:36.155Z,12.38
2023-02-20T01:24:02.461Z,11.50
2023-02-20T01:26:28.905Z,11.77
2023-02-20T01:28:55.195Z,11.80
2023-02-20T01:31:22.758Z,12.52
2023-02-20T01:33:49.060Z,11.20
2023-02-20T01:36:15.389Z,11.40
2023-02-20T01:38:42.057Z,11.73
2023-02-20T01:41:09.239Z,11.98
2023-02-20T01:43:35.614Z,11.63
2023-02-20T01:46:20.360Z,12.23
2023-02-20T01:48:46.660Z,11.90
2023-02-20T01:51:12.905Z,11.80
2023-02-20T01:53:39.519Z,12.15
2023-02-20T01:56:07.896Z,11.80
2023-02-20T01:58:38.805Z,10.98
2023-02-20T02:01:05.642Z,13.00
2023-02-20T02:03:33.978Z,12.50
2023-02-20T02:06:02.667Z,12.68
2023-02-20T02:08:29.656Z,12.27
2023-02-20T02:11:03.713Z,12.40
2023-02-20T02:13:30.912Z,13.35
2023-02-20T02:16:15.746Z,13.25
2023-02-20T02:18:51.130Z,14.98
2023-02-20T02:21:36.003Z,15.43
2023-02-20T02:24:05.211Z,15.35
2023-02-20T02:26:34.581Z,15.57
2023-02-20T02:29:00.814Z,17.55
2023-02-20T02:31:27.149Z,18.58
2023-02-20T02:34:05.633Z,18.98
2023-02-20T02:36:31.934Z,17.95
2023-02-20T02:39:16.399Z,19.92
2023-02-20T02:41:47.886Z,19.70
2023-02-20T02:44:32.723Z,18.88
2023-02-20T02:47:11.210Z,19.75
2023-02-20T02:49:40.555Z,20.50
2023-02-20T02:52:08.133Z,20.27
2023-02-20T02:54:35.467Z,20.88
2023-02-20T02:57:20.349Z,21.27
2023-02-20T02:59:47.832Z,21.65
2023-02-20T03:02:15.253Z,21.38
2023-02-20T03:04:43.822Z,22.13
2023-02-20T03:07:16.210Z,21.67
2023-02-20T03:09:45.018Z,22.30
2023-02-20T03:12:13.032Z,23.95
2023-02-20T03:15:03.913Z,21.77
2023-02-20T03:17:31.866Z,22.52
2023-02-20T03:20:00.658Z,23.40
2023-02-20T03:22:29.340Z,23.52
2023-02-20T03:25:01.777Z,24.50
2023-02-20T03:27:39.012Z,22.10
2023-02-20T03:30:20.390Z,22.70
2023-02-20T03:33:06.463Z,23.70
2023-02-20T03:35:53.769Z,23.75
2023-02-20T03:38:39.536Z,22.33
2023-02-20T03:41:25.267Z,21.85
2023-02-20T03:43:52.953Z,21.35
2023-02-20T03:46:22.908Z,21.83
2023-02-20T03:48:52.931Z,22.45
2023-02-20T03:51:37.568Z,21.05
2023-02-20T03:54:04.121Z,21.48
2023-02-20T03:56:32.802Z,23.40
2023-02-20T03:59:02.890Z,21.75
2023-02-20T04:01:29.516Z,22.13
2023-02-20T04:03:57.692Z,22.58
2023-02-20T04:06:27.409Z,22.20
2023-02-20T04:09:14.142Z,24.40
2023-02-20T04:11:43.114Z,22.55
2023-02-20T04:14:09.812Z,23.05
2023-02-20T04:16:39.878Z,23.10
2023-02-20T04:19:06.345Z,23.80
2023-02-20T04:21:39.018Z,23.88
2023-02-20T04:24:12.649Z,24.95
2023-02-20T04:26:39.137Z,22.70
2023-02-20T04:29:05.600Z,24.33
2023-02-20T04:31:31.998Z,26.20
2023-02-20T04:33:58.400Z,23.85
2023-02-20T04:36:25.126Z,25.67
2023-02-20T04:38:51.469Z,25.92
2023-02-20T04:41:17.920Z,25.50
2023-02-20T04:43:44.198Z,26.05
2023-02-20T04:46:10.633Z,24.58
2023-02-20T04:48:37.107Z,25.40
2023-02-20T04:51:03.473Z,26.65
2023-02-20T04:53:29.717Z,26.42
2023-02-20T04:55:55.937Z,25.98
2023-02-20T04:58:22.221Z,26.77
2023-02-20T05:00:48.486Z,25.52
2023-02-20T05:03:14.770Z,25.45
2023-02-20T05:05:41.081Z,24.67
2023-02-20T05:08:08.032Z,25.83
2023-02-20T05:10:35.209Z,24.40
2023-02-20T05:13:01.854Z,24.83
2023-02-20T05:15:28.939Z,23.40
2023-02-20T05:17:55.459Z,25.38
2023-02-20T05:20:41.721Z,24.05
2023-02-20T05:23:08.007Z,22.98
2023-02-20T05:25:34.265Z,23.33
2023-02-20T05:28:00.501Z,22.98
2023-02-20T05:30:26.817Z,23.55
2023-02-20T05:32:53.112Z,21.73
2023-02-20T05:35:19.412Z,21.77
2023-02-20T05:37:45.638Z,21.65
2023-02-20T05:40:12.043Z,21.65
2023-02-20T05:42:38.286Z,20.10
2023-02-20T05:45:04.729Z,20.55
2023-02-20T05:47:31.016Z,18.80
2023-02-20T05:49:57.308Z,18.13
2023-02-20T05:52:23.582Z,18.33
2023-02-20T05:54:49.865Z,18.05
2023-02-20T05:57:16.121Z,17.65
2023-02-20T05:59:42.413Z,16.45
2023-02-20T06:02:08.964Z,17.42
2023-02-20T06:04:35.289Z,14.85
2023-02-20T06:07:01.661Z,17.15
2023-02-20T06:09:27.991Z,14.32
2023-02-20T06:11:55.273Z,14.57
2023-02-20T06:14:22.625Z,14.57
2023-02-20T06:16:49.060Z,13.10
2023-02-20T06:19:22.575Z,12.95
2023-02-20T06:21:49.793Z,14.88
2023-02-20T06:24:16.396Z,14.02
2023-02-20T06:26:43.144Z,13.07
2023-02-20T06:29:09.747Z,13.23
2023-02-20T06:31:36.378Z,13.65
2023-02-20T06:34:02.750Z,12.88
2023-02-20T06:36:30.727Z,12.85
2023-02-20T06:38:58.221Z,13.40
2023-02-20T06:41:24.608Z,12.65
2023-02-20T06:43:50.874Z,13.38
2023-02-20T06:46:17.167Z,11.43
2023-02-20T06:48:44.293Z,12.65
2023-02-20T06:51:10.615Z,12.15
2023-02-20T06:53:38.704Z,12.15
2023-02-20T06:56:11.966Z,12.30
2023-02-20T06:58:38.458Z,11.80
2023-02-20T07:01:04.779Z,11.88
2023-02-20T07:03:31.048Z,10.75
2023-02-20T07:05:57.347Z,11.23
2023-02-20T07:08:23.581Z,10.52
2023-02-20T07:10:49.910Z,11.20
2023-02-20T07:13:16.202Z,9.90
2023-02-20T07:15:42.475Z,10.15
2023-02-20T07:18:08.820Z,9.40
2023-02-20T07:20:35.164Z,8.63
2023-02-20T07:23:01.468Z,11.05
2023-02-20T07:25:27.722Z,9.07
2023-02-20T07:27:54.010Z,9.77
2023-02-20T07:30:20.426Z,10.20
2023-02-20T07:32:46.741Z,9.15
2023-02-20T07:35:13.041Z,9.07
2023-02-20T07:37:39.362Z,9.57
2023-02-20T07:40:05.784Z,9.68
2023-02-20T07:42:32.724Z,10.70
2023-02-20T07:44:59.022Z,10.10
2023-02-20T07:47:25.341Z,9.77
2023-02-20T07:49:51.796Z,8.63
2023-02-20T07:52:18.065Z,8.95
2023-02-20T07:54:44.368Z,9.13
2023-02-20T07:57:10.680Z,10.07
2023-02-20T07:59:36.961Z,8.60
2023-02-20T08:02:03.290Z,10.00
2023-02-20T08:04:29.559Z,9.10
2023-02-20T08:06:55.799Z,9.60
2023-02-20T08:09:22.045Z,9.65
2023-02-20T08:11:48.386Z,8.95
2023-02-20T08:14:15.143Z,8.77
2023-02-20T08:16:41.507Z,9.80
2023-02-20T08:19:07.935Z,8.98
2023-02-20T08:21:34.195Z,10.15
2023-02-20T08:24:00.574Z,8.98
2023-02-20T08:26:26.976Z,8.25
2023-02-20T08:28:53.622Z,8.55
2023-02-20T08:31:31.804Z,9.38
2023-02-20T08:33:59.161Z,8.45
2023-02-20T08:36:25.468Z,9.00
2023-02-20T08:38:51.729Z,8.88
2023-02-20T08:41:17.997Z,8.88
2023-02-20T08:43:44.424Z,8.85
2023-02-20T08:46:11.236Z,10.13
2023-02-20T08:48:38.062Z,8.88
2023-02-20T08:51:05.446Z,9.27
2023-02-20T08:53:32.196Z,9.10
2023-02-20T08:55:58.480Z,9.10
2023-02-20T08:58:25.210Z,9.80
2023-02-20T09:00:51.956Z,9.85
2023-02-20T09:03:18.527Z,9.38
2023-02-20T09:05:44.883Z,10.07
2023-02-20T09:08:11.293Z,9.52
2023-02-20T09:10:37.795Z,9.65
2023-02-20T09:13:04.256Z,9.23
2023-02-20T09:15:31.735Z,10.98
2023-02-20T09:17:58.030Z,10.15
2023-02-20T09:20:24.390Z,10.88
2023-02-20T09:22:51.086Z,10.38
2023-02-20T09:25:18.130Z,10.93
2023-02-20T09:27:44.395Z,11.35
2023-02-20T09:30:12.327Z,11.38
2023-02-20T09:32:38.824Z,11.60
2023-02-20T09:35:05.250Z,12.13
2023-02-20T09:37:31.507Z,12.13
2023-02-20T09:39:57.791Z,12.70
2023-02-20T09:42:30.097Z,12.82
2023-02-20T09:45:12.592Z,12.48
2023-02-20T09:47:55.041Z,12.52
2023-02-20T09:50:42.065Z,13.57
2023-02-20T09:53:26.634Z,12.52
2023-02-20T09:55:53.210Z,13.05
2023-02-20T09:58:32.629Z,12.05
2023-02-20T10:01:01.793Z,11.52
2023-02-20T10:03:35.083Z,12.38
2023-02-20T10:06:01.835Z,11.65
2023-02-20T10:08:28.103Z,13.73
2023-02-20T10:10:58.268Z,12.82
2023-02-20T10:13:36.638Z,11.52
2023-02-20T10:16:21.850Z,11.98
2023-02-20T10:18:59.597Z,10.98
2023-02-20T10:21:37.959Z,11.65
2023-02-20T10:24:18.219Z,10.48
2023-02-20T10:26:46.855Z,10.88
2023-02-20T10:29:23.850Z,10.95
2023-02-20T10:31:55.981Z,11.05
2023-02-20T10:34:29.145Z,10.30
2023-02-20T10:37:01.522Z,11.30
2023-02-20T10:39:28.591Z,11.55
2023-02-20T10:41:59.913Z,12.20
2023-02-20T10:44:26.209Z,10.23
2023-02-20T10:46:58.702Z,10.73
2023-02-20T10:49:32.152Z,10.95
2023-02-20T10:52:00.996Z,11.57
2023-02-20T10:54:46.647Z,10.88
2023-02-20T10:57:20.546Z,11.27
2023-02-20T11:00:09.753Z,10.88
2023-02-20T11:02:39.434Z,11.57
2023-02-20T11:05:08.341Z,12.10
2023-02-20T11:07:34.590Z,12.85
2023-02-20T11:10:00.884Z,12.77
2023-02-20T11:12:32.364Z,11.63
2023-02-20T11:15:00.612Z,12.55
2023-02-20T11:17:27.756Z,13.40
2023-02-20T11:20:04.871Z,12.32
2023-02-20T11:22:48.622Z,12.25
2023-02-20T11:25:19.488Z,12.30
2023-02-20T11:27:49.980Z,13.38
2023-02-20T11:30:22.326Z,11.93
2023-02-20T11:32:49.297Z,12.27
2023-02-20T11:35:18.732Z,12.38
2023-02-20T11:37:54.824Z,13.65
2023-02-20T11:40:29.267Z,12.00
2023-02-20T11:42:55.613Z,11.10
2023-02-20T11:45:24.895Z,12.48
2023-02-20T11:48:10.607Z,11.18
2023-02-20T11:50:46.607Z,11.35
2023-02-20T11:53:23.421Z,10.55
2023-02-20T11:55:59.736Z,11.25
2023-02-20T11:58:27.079Z,11.73
2023-02-20T12:00:54.291Z,11.57
2023-02-20T12:03:22.685Z,11.35
2023-02-20T12:05:49.868Z,11.32
2023-02-20T12:08:31.610Z,9.93
2023-02-20T12:11:02.194Z,10.07
2023-02-20T12:16:06.930Z,10.15
2023-02-20T12:18:40.462Z,9.95
2023-02-20T12:21:23.584Z,10.30
2023-02-20T12:24:09.057Z,10.85
2023-02-20T12:26:44.943Z,10.50
2023-02-20T12:29:29.869Z,11.25
2023-02-20T12:32:15.096Z,11.32
2023-02-20T12:34:47.298Z,10.85
2023-02-20T12:37:13.599Z,11.30
2023-02-20T12:39:45.161Z,11.48
2023-02-20T12:42:30.127Z,11.63
2023-02-20T12:45:14.900Z,11.13
2023-02-20T12:47:44.017Z,12.45
2023-02-20T12:50:19.395Z,12.35
2023-02-20T12:53:04.221Z,12.35
2023-02-20T12:55:33.263Z,11.77
2023-02-20T12:58:04.387Z,11.98
2023-02-20T13:00:32.777Z,12.13
2023-02-20T13:03:02.934Z,10.45
2023-02-20T13:05:30.011Z,12.68
2023-02-20T13:07:58.577Z,11.82
2023-02-20T13:10:27.150Z,11.38
2023-02-20T13:12:53.949Z,10.07
2023-02-20T13:15:24.881Z,10.15
2023-02-20T13:17:54.257Z,10.05
2023-02-20T13:20:23.127Z,10.35
2023-02-20T13:23:18.530Z,10.05
2023-02-20T13:25:48.609Z,10.02
2023-02-20T13:28:20.829Z,10.68
2023-02-20T13:31:05.663Z,10.63
2023-02-20T13:33:32.983Z,12.18
2023-02-20T13:35:59.547Z,10.18
2023-02-20T13:38:26.639Z,11.02
2023-02-20T13:40:55.942Z,11.10
2023-02-20T13:43:26.766Z,12.13
2023-02-20T13:46:10.436Z,11.90
2023-02-20T13:48:37.296Z,12.48
2023-02-20T13:51:12.497Z,13.98
2023-02-20T13:53:38.826Z,13.95
2023-02-20T13:56:05.149Z,13.38
2023-02-20T13:58:31.452Z,11.13
2023-02-20T14:00:57.823Z,12.55
2023-02-20T14:03:26.032Z,11.85
2023-02-20T14:06:02.542Z,13.18
2023-02-20T14:08:28.842Z,13.13
2023-02-20T14:10:55.133Z,13.48
2023-02-20T14:13:34.213Z,14.45
2023-02-20T14:16:22.337Z,12.88
2023-02-20T14:18:48.803Z,11.98
2023-02-20T14:21:18.724Z,11.07
2023-02-20T14:23:45.817Z,11.75
2023-02-20T14:26:22.995Z,10.98
2023-02-20T14:28:51.070Z,10.80
2023-02-20T14:31:36.080Z,11.80
2023-02-20T14:34:08.143Z,9.18
2023-02-20T14:36:37.389Z,8.93
2023-02-20T14:39:16.469Z,9.20
2023-02-20T14:42:02.292Z,9.93
2023-02-20T14:44:29.594Z,10.40
2023-02-20T14:47:02.434Z,9.82
2023-02-20T14:49:31.265Z,10.32
2023-02-20T14:52:09.889Z,10.40
2023-02-20T14:54:37.520Z,12.00
2023-02-20T14:57:04.913Z,11.10
2023-02-20T14:59:33.438Z,12.80
2023-02-20T15:02:33.107Z,13.27
2023-02-20T15:05:12.625Z,13.65
2023-02-20T15:07:39.961Z,13.45
2023-02-20T15:10:26.356Z,13.60
2023-02-20T15:12:57.221Z,13.45
2023-02-20T15:15:23.629Z,11.98
2023-02-20T15:18:05.289Z,12.07
2023-02-20T15:20:31.510Z,12.80
2023-02-20T15:23:15.433Z,11.57
2023-02-20T15:25:42.850Z,11.52
2023-02-20T15:28:17.969Z,12.60
2023-02-20T15:30:59.628Z,11.35
2023-02-20T15:33:26.258Z,13.68
2023-02-20T15:35:52.593Z,12.10
2023-02-20T15:38:19.104Z,11.77
2023-02-20T15:40:45.397Z,12.02
2023-02-20T15:43:24.005Z,11.43
2023-02-20T15:45:58.620Z,12.13
2023-02-20T15:48:24.876Z,12.35
2023-02-20T15:50:51.528Z,11.30
2023-02-20T15:53:19.985Z,11.55
2023-02-20T15:55:46.392Z,11.02
2023-02-20T15:58:35.890Z,10.55
2023-02-20T16:01:02.528Z,10.35
2023-02-20T16:03:31.868Z,12.00
2023-02-20T16:06:00.492Z,11.40
2023-02-20T16:08:27.544Z,11.82
2023-02-20T16:10:54.610Z,12.30
2023-02-20T16:13:24.082Z,12.23
2023-02-20T16:15:50.486Z,12.55
2023-02-20T16:18:16.749Z,13.73
2023-02-20T16:20:43.286Z,11.65
2023-02-20T16:23:10.181Z,12.45
2023-02-20T16:25:36.585Z,12.25
2023-02-20T16:28:03.611Z,12.40
2023-02-20T16:30:34.259Z,12.70
2023-02-20T16:33:01.994Z,12.57
2023-02-20T16:35:28.291Z,11.15
2023-02-20T16:37:54.570Z,11.98
2023-02-20T16:40:20.858Z,11.88
2023-02-20T16:42:47.209Z,11.85
2023-02-20T16:45:15.289Z,12.98
2023-02-20T16:47:41.943Z,13.07
2023-02-20T16:50:13.488Z,12.80
2023-02-20T16:52:40.489Z,12.52
2023-02-20T16:55:27.153Z,13.15
2023-02-20T16:57:54.570Z,12.35
2023-02-20T17:00:22.864Z,14.48
2023-02-20T17:02:49.162Z,14.68
2023-02-20T17:05:15.609Z,14.50
2023-02-20T17:07:42.008Z,12.93
2023-02-20T17:10:08.518Z,12.30
2023-02-20T17:12:34.968Z,12.27
2023-02-20T17:15:01.709Z,11.90
2023-02-20T17:17:28.037Z,12.70
2023-02-20T17:19:55.840Z,12.32
2023-02-20T17:22:22.507Z,10.85
2023-02-20T17:24:49.092Z,11.45
2023-02-20T17:27:15.707Z,12.25
2023-02-20T17:29:42.693Z,11.85
2023-02-20T17:32:09.316Z,14.60
2023-02-20T17:34:35.648Z,12.85
2023-02-20T17:37:01.923Z,13.48
2023-02-20T17:39:28.235Z,15.10
2023-02-20T17:41:55.604Z,15.07
2023-02-20T17:44:23.281Z,15.98
2023-02-20T17:46:50.940Z,16.00
2023-02-20T17:49:17.771Z,16.27
2023-02-20T17:51:44.711Z,17.83
2023-02-20T17:54:11.614Z,17.33
2023-02-20T17:56:41.731Z,17.88
2023-02-20T17:59:08.439Z,17.42
2023-02-20T18:01:35.102Z,18.38
2023-02-20T18:04:04.445Z,17.52
2023-02-20T18:06:30.725Z,17.88
2023-02-20T18:08:56.957Z,17.60
2023-02-20T18:11:23.369Z,17.95
2023-02-20T18:13:49.604Z,17.17
2023-02-20T18:16:16.205Z,16.48
2023-02-20T18:18:42.663Z,17.45
2023-02-20T18:21:19.393Z,17.55
2023-02-20T18:23:45.688Z,18.15
2023-02-20T18:26:13.006Z,18.50
2023-02-20T18:28:39.588Z,17.50
2023-02-20T18:31:06.542Z,16.63
2023-02-20T18:33:32.872Z,17.88
2023-02-20T18:36:07.914Z,17.33
2023-02-20T18:38:34.999Z,16.55
2023-02-20T18:41:01.315Z,15.75
2023-02-20T18:43:28.091Z,16.42
2023-02-20T18:45:54.931Z,16.40
2023-02-20T18:48:21.317Z,16.85
2023-02-20T18:50:47.641Z,16.48
2023-02-20T18:53:13.950Z,18.95
2023-02-20T18:55:40.242Z,18.13
2023-02-20T18:58:06.675Z,18.40
2023-02-20T19:00:35.734Z,18.27
2023-02-20T19:03:03.487Z,19.00
2023-02-20T19:05:29.786Z,18.15
2023-02-20T19:07:56.164Z,16.33
2023-02-20T19:10:23.774Z,16.75
2023-02-20T19:12:50.434Z,16.13
2023-02-20T19:15:17.282Z,15.77
2023-02-20T19:17:44.659Z,14.27
2023-02-20T19:20:24.492Z,13.45
2023-02-20T19:22:51.538Z,13.18
2023-02-20T19:25:19.185Z,13.45
2023-02-20T19:27:45.465Z,13.60
2023-02-20T19:30:12.055Z,13.73
2023-02-20T19:32:38.454Z,13.52
2023-02-20T19:35:05.109Z,14.45
2023-02-20T19:37:31.363Z,15.73
2023-02-20T19:39:57.635Z,20.23
2023-02-20T19:42:25.714Z,18.52
2023-02-20T19:44:55.249Z,19.48
2023-02-20T19:47:22.094Z,18.80
2023-02-20T19:49:49.876Z,20.52
2023-02-20T19:52:16.184Z,18.90
2023-02-20T19:54:45.852Z,18.27
2023-02-20T19:57:12.550Z,18.13
2023-02-20T19:59:38.996Z,18.30
2023-02-20T20:02:05.395Z,19.13
2023-02-20T20:04:32.806Z,19.35
2023-02-20T20:06:59.992Z,20.50
2023-02-20T20:09:36.121Z,22.08
2023-02-20T20:12:03.958Z,21.73
2023-02-20T20:14:30.221Z,24.42
2023-02-20T20:16:56.616Z,23.90
2023-02-20T20:19:23.012Z,25.42
2023-02-20T20:21:50.198Z,27.58
2023-02-20T20:24:16.545Z,28.90
2023-02-20T20:26:43.139Z,28.90
2023-02-20T20:29:09.477Z,30.45
2023-02-20T20:31:38.989Z,30.52
2023-02-20T20:34:05.936Z,33.28
2023-02-20T20:36:32.212Z,36.20
2023-02-20T20:38:58.508Z,36.22
2023-02-20T20:41:26.507Z,37.40
2023-02-20T20:43:52.820Z,39.90
2023-02-20T20:46:19.186Z,40.17
2023-02-20T20:48:46.031Z,42.50
2023-02-20T20:51:13.400Z,43.63
2023-02-20T20:53:39.800Z,42.97
2023-02-20T20:56:06.942Z,42.72
2023-02-20T20:58:33.230Z,45.67
2023-02-20T21:00:59.500Z,42.53
2023-02-20T21:03:25.828Z,45.88
2023-02-20T21:05:52.313Z,47.15
2023-02-20T21:08:18.588Z,46.78
2023-02-20T21:10:45.000Z,47.83
2023-02-20T21:13:11.384Z,47.75
2023-02-20T21:15:37.801Z,49.78
2023-02-20T21:18:04.487Z,50.72
2023-02-20T21:20:31.055Z,50.97
2023-02-20T21:22:58.399Z,51.17
2023-02-20T21:25:25.316Z,53.35
2023-02-20T21:27:52.326Z,54.97
2023-02-20T21:30:18.988Z,55.42
2023-02-20T21:32:45.882Z,52.88
2023-02-20T21:35:16.675Z,52.60
2023-02-20T21:37:42.931Z,54.42
2023-02-20T21:40:09.444Z,52.45
2023-02-20T21:42:54.253Z,52.03
2023-02-20T21:45:20.573Z,48.92
2023-02-20T21:47:46.945Z,50.05
2023-02-20T21:50:13.952Z,51.53
2023-02-20T21:52:40.183Z,48.38
2023-02-20T21:55:08.276Z,47.70
2023-02-20T21:57:34.551Z,50.60
2023-02-20T22:00:00.830Z,49.25
2023-02-20T22:02:27.062Z,46.75
2023-02-20T22:04:53.274Z,44.33
2023-02-20T22:07:37.903Z,42.78
2023-02-20T22:10:22.716Z,36.20
2023-02-20T22:13:07.527Z,34.92
2023-02-20T22:15:52.402Z,31.95
2023-02-20T22:18:37.258Z,34.33
2023-02-20T22:21:21.972Z,33.85
2023-02-20T22:24:06.847Z,34.17
2023-02-20T22:26:51.729Z,35.38
2023-02-20T22:29:36.572Z,34.75
2023-02-20T22:32:21.576Z,35.47
2023-02-20T22:35:11.883Z,34.53
2023-02-20T22:37:57.298Z,34.60
2023-02-20T22:40:42.036Z,34.72
2023-02-20T22:43:26.924Z,32.75
2023-02-20T22:46:11.731Z,35.40
2023-02-20T22:48:56.696Z,33.38
2023-02-20T22:51:41.423Z,32.03
2023-02-20T22:54:26.264Z,29.05
2023-02-20T22:57:11.191Z,28.58
2023-02-20T22:59:55.964Z,28.33
2023-02-20T23:02:40.753Z,27.58
2023-02-20T23:05:25.424Z,28.50
2023-02-20T23:08:10.124Z,28.20
2023-02-20T23:10:54.906Z,27.15
2023-02-20T23:13:39.742Z,27.27
2023-02-20T23:16:24.644Z,28.10
2023-02-20T23:19:09.543Z,27.95
2023-02-20T23:21:54.216Z,28.85
2023-02-20T23:24:38.843Z,27.77
2023-02-20T23:27:23.575Z,29.17
2023-02-20T23:30:10.325Z,26.60
2023-02-20T23:32:55.079Z,28.83
2023-02-20T23:35:39.710Z,26.90
2023-02-20T23:38:24.573Z,25.92
2023-02-20T23:41:09.238Z,26.55
2023-02-20T23:43:54.006Z,26.15
2023-02-20T23:46:38.689Z,27.27
2023-02-20T23:49:23.436Z,25.05
2023-02-20T23:52:16.166Z,24.95
2023-02-20T23:55:01.954Z,24.52
2023-02-20T23:57:46.592Z,26.55
